createdAt,value
2023-03-31T00:01:53.016Z,1.00
2023-03-31T00:04:24.470Z,1.02
2023-03-31T00:06:54.368Z,1.30
2023-03-31T00:09:24.328Z,1.27
2023-03-31T00:11:52.056Z,1.30
2023-03-31T00:14:20.375Z,1.10
2023-03-31T00:16:47.285Z,0.90
2023-03-31T00:19:21.322Z,0.77
2023-03-31T00:21:49.177Z,1.00
2023-03-31T00:24:16.480Z,0.82
2023-03-31T00:26:43.605Z,1.00
2023-03-31T00:29:13.050Z,0.93
2023-03-31T00:31:39.764Z,1.00
2023-03-31T00:34:06.967Z,0.80
2023-03-31T00:36:36.585Z,0.85
2023-03-31T00:39:12.214Z,1.05
2023-03-31T00:44:06.602Z,1.00
2023-03-31T00:46:52.489Z,1.00
2023-03-31T00:49:28.561Z,1.20
2023-03-31T00:51:59.866Z,0.77
2023-03-31T00:54:27.326Z,1.30
2023-03-31T00:56:58.516Z,1.08
2023-03-31T00:59:28.919Z,1.00
2023-03-31T01:01:59.346Z,0.80
2023-03-31T01:04:26.456Z,1.15
2023-03-31T01:07:03.511Z,1.00
2023-03-31T01:09:34.861Z,1.00
2023-03-31T01:12:05.984Z,1.30
2023-03-31T01:14:33.037Z,1.00
2023-03-31T01:16:59.667Z,0.93
2023-03-31T01:19:46.066Z,1.10
2023-03-31T01:22:33.849Z,0.77
2023-03-31T01:25:18.244Z,1.08
2023-03-31T01:28:02.036Z,0.80
2023-03-31T01:30:40.816Z,0.82
2023-03-31T01:33:40.572Z,1.20
2023-03-31T01:36:19.254Z,0.85
2023-03-31T01:39:04.993Z,0.70
2023-03-31T01:41:55.517Z,1.17
2023-03-31T01:45:03.934Z,1.00
2023-03-31T01:47:41.481Z,0.85
2023-03-31T01:50:35.617Z,0.90
2023-03-31T01:53:21.015Z,0.73
2023-03-31T01:56:00.946Z,1.00
2023-03-31T01:58:39.166Z,0.93
2023-03-31T02:01:26.277Z,0.88
2023-03-31T02:03:58.630Z,1.30
2023-03-31T02:06:34.839Z,0.90
2023-03-31T02:09:06.573Z,1.02
2023-03-31T02:11:34.701Z,0.90
2023-03-31T02:14:03.923Z,0.80
2023-03-31T02:16:34.537Z,1.05
2023-03-31T02:19:05.633Z,1.00
2023-03-31T02:21:34.188Z,1.10
2023-03-31T02:24:04.687Z,1.02
2023-03-31T02:26:37.832Z,1.10
2023-03-31T02:29:04.657Z,1.13
2023-03-31T02:31:46.402Z,1.30
2023-03-31T02:34:13.031Z,1.20
2023-03-31T02:36:42.343Z,1.30
2023-03-31T02:39:11.901Z,1.17
2023-03-31T02:41:38.471Z,0.93
2023-03-31T02:44:05.078Z,1.30
2023-03-31T02:46:32.325Z,1.48
2023-03-31T02:49:02.020Z,1.85
2023-03-31T02:52:06.919Z,1.20
2023-03-31T02:55:07.083Z,1.23
2023-03-31T02:57:52.605Z,1.13
2023-03-31T03:00:34.068Z,1.08
2023-03-31T03:03:09.469Z,1.48
2023-03-31T03:05:35.999Z,1.17
2023-03-31T03:08:37.604Z,1.90
2023-03-31T03:11:18.244Z,1.20
2023-03-31T03:13:52.639Z,1.10
2023-03-31T03:16:32.904Z,1.20
2023-03-31T03:19:01.714Z,1.10
2023-03-31T03:21:29.638Z,1.15
2023-03-31T03:23:56.173Z,1.60
2023-03-31T03:26:28.074Z,1.33
2023-03-31T03:28:57.486Z,1.45
2023-03-31T03:31:26.164Z,1.38
2023-03-31T03:33:53.643Z,1.40
2023-03-31T03:36:20.625Z,1.20
2023-03-31T03:38:47.153Z,1.67
2023-03-31T03:41:13.708Z,1.42
2023-03-31T03:43:40.178Z,1.30
2023-03-31T03:46:06.870Z,1.15
2023-03-31T03:48:33.944Z,1.50
2023-03-31T03:51:01.473Z,1.50
2023-03-31T03:53:28.153Z,1.35
2023-03-31T03:55:54.632Z,2.05
2023-03-31T03:58:21.505Z,1.10
2023-03-31T04:00:48.093Z,1.38
2023-03-31T04:03:15.261Z,1.13
2023-03-31T04:05:42.160Z,1.40
2023-03-31T04:08:08.949Z,1.35
2023-03-31T04:10:36.312Z,1.40
2023-03-31T04:13:03.062Z,1.30
2023-03-31T04:15:29.646Z,1.40
2023-03-31T04:17:58.311Z,1.48
2023-03-31T04:20:27.981Z,1.20
2023-03-31T04:22:54.753Z,1.60
2023-03-31T04:25:22.748Z,1.13
2023-03-31T04:27:55.347Z,1.38
2023-03-31T04:30:23.696Z,1.25
2023-03-31T04:32:51.457Z,1.88
2023-03-31T04:35:20.651Z,2.20
2023-03-31T04:37:52.459Z,1.77
2023-03-31T04:40:18.979Z,1.45
2023-03-31T04:42:45.648Z,1.50
2023-03-31T04:45:12.677Z,1.60
2023-03-31T04:47:39.488Z,1.17
2023-03-31T04:50:06.834Z,1.15
2023-03-31T04:52:33.393Z,1.13
2023-03-31T04:54:59.932Z,1.25
2023-03-31T04:57:26.510Z,1.20
2023-03-31T04:59:53.052Z,1.58
2023-03-31T05:02:25.274Z,1.23
2023-03-31T05:04:52.595Z,1.33
2023-03-31T05:07:19.988Z,1.55
2023-03-31T05:09:46.998Z,1.42
2023-03-31T05:12:13.504Z,1.15
2023-03-31T05:14:40.078Z,1.45
2023-03-31T05:17:06.626Z,1.52
2023-03-31T05:19:33.581Z,1.58
2023-03-31T05:22:00.105Z,1.23
2023-03-31T05:24:28.395Z,1.10
2023-03-31T05:26:57.268Z,1.25
2023-03-31T05:29:24.569Z,1.10
2023-03-31T05:31:51.218Z,1.10
2023-03-31T05:34:17.693Z,1.58
2023-03-31T05:36:44.274Z,1.27
2023-03-31T05:39:10.808Z,1.20
2023-03-31T05:41:37.365Z,1.02
2023-03-31T05:44:03.942Z,1.20
2023-03-31T05:46:30.938Z,1.08
2023-03-31T05:48:58.823Z,1.27
2023-03-31T05:51:25.424Z,0.95
2023-03-31T05:53:52.142Z,0.93
2023-03-31T05:56:18.660Z,1.00
2023-03-31T05:58:45.137Z,1.02
2023-03-31T06:01:19.867Z,1.15
2023-03-31T06:03:46.820Z,1.00
2023-03-31T06:06:14.914Z,1.10
2023-03-31T06:08:41.504Z,1.20
2023-03-31T06:11:09.665Z,1.38
2023-03-31T06:13:36.966Z,1.33
2023-03-31T06:16:04.301Z,1.40
2023-03-31T06:18:32.833Z,1.15
2023-03-31T06:20:59.510Z,1.17
2023-03-31T06:23:27.038Z,1.00
2023-03-31T06:25:54.194Z,0.90
2023-03-31T06:28:21.511Z,0.80
2023-03-31T06:30:48.259Z,1.00
2023-03-31T06:33:14.984Z,1.08
2023-03-31T06:35:41.791Z,1.30
2023-03-31T06:38:08.551Z,0.95
2023-03-31T06:40:35.506Z,1.05
2023-03-31T06:43:02.112Z,1.00
2023-03-31T06:45:28.641Z,1.48
2023-03-31T06:47:55.245Z,0.90
2023-03-31T06:50:21.854Z,1.38
2023-03-31T06:52:48.450Z,1.13
2023-03-31T06:55:16.081Z,1.17
2023-03-31T06:57:42.673Z,1.00
2023-03-31T07:00:10.104Z,1.10
2023-03-31T07:02:37.347Z,0.90
2023-03-31T07:05:04.161Z,1.00
2023-03-31T07:07:33.814Z,1.00
2023-03-31T07:10:00.564Z,0.88
2023-03-31T07:12:27.223Z,1.10
2023-03-31T07:14:53.756Z,0.85
2023-03-31T07:17:20.402Z,1.00
2023-03-31T07:19:48.131Z,0.88
2023-03-31T07:22:15.859Z,0.93
2023-03-31T07:24:42.692Z,0.80
2023-03-31T07:27:09.379Z,1.00
2023-03-31T07:29:36.013Z,1.15
2023-03-31T07:32:02.797Z,1.02
2023-03-31T07:34:29.562Z,1.38
2023-03-31T07:36:56.510Z,1.00
2023-03-31T07:39:23.481Z,0.93
2023-03-31T07:41:49.944Z,0.90
2023-03-31T07:44:17.655Z,0.75
2023-03-31T07:46:44.487Z,1.40
2023-03-31T07:49:16.024Z,1.17
2023-03-31T07:51:42.754Z,0.93
2023-03-31T07:54:09.394Z,1.23
2023-03-31T07:56:36.443Z,1.30
2023-03-31T07:59:03.264Z,1.23
2023-03-31T08:01:30.000Z,1.77
2023-03-31T08:03:57.341Z,1.40
2023-03-31T08:06:25.351Z,1.13
2023-03-31T08:08:52.216Z,1.27
2023-03-31T08:11:21.229Z,1.50
2023-03-31T08:16:14.700Z,1.30
2023-03-31T08:18:41.468Z,1.40
2023-03-31T08:21:10.003Z,1.20
2023-03-31T08:23:37.023Z,1.73
2023-03-31T08:26:16.409Z,1.63
2023-03-31T08:28:45.525Z,1.20
2023-03-31T08:31:12.871Z,1.05
2023-03-31T08:33:39.474Z,1.02
2023-03-31T08:36:10.359Z,1.40
2023-03-31T08:38:39.160Z,1.08
2023-03-31T08:41:08.207Z,1.10
2023-03-31T08:43:40.760Z,1.13
2023-03-31T08:46:12.396Z,1.30
2023-03-31T08:48:45.481Z,0.85
2023-03-31T08:51:21.811Z,1.48
2023-03-31T08:53:52.583Z,1.15
2023-03-31T08:56:22.641Z,1.30
2023-03-31T08:58:50.905Z,1.10
2023-03-31T09:01:25.683Z,1.20
2023-03-31T09:04:44.899Z,1.80
2023-03-31T09:07:29.523Z,1.20
2023-03-31T09:10:25.231Z,1.40
2023-03-31T09:13:10.396Z,1.52
2023-03-31T09:15:51.558Z,1.35
2023-03-31T09:18:32.109Z,1.60
2023-03-31T09:21:04.629Z,1.60
2023-03-31T09:23:36.772Z,0.90
2023-03-31T09:26:05.327Z,1.23
2023-03-31T09:28:38.346Z,1.23
2023-03-31T09:31:17.831Z,1.52
2023-03-31T09:33:48.451Z,1.73
2023-03-31T09:36:18.344Z,1.67
2023-03-31T09:38:46.546Z,1.40
2023-03-31T09:41:16.162Z,1.52
2023-03-31T09:43:46.077Z,1.00
2023-03-31T09:46:34.827Z,1.70
2023-03-31T09:49:12.656Z,1.40
2023-03-31T09:51:44.611Z,1.30
2023-03-31T09:54:25.805Z,1.73
2023-03-31T09:59:36.073Z,1.23
2023-03-31T10:02:12.511Z,1.60
2023-03-31T10:04:46.497Z,1.42
2023-03-31T10:07:13.811Z,1.50
2023-03-31T10:09:41.390Z,1.33
2023-03-31T10:12:22.876Z,0.93
2023-03-31T10:14:51.466Z,1.23
2023-03-31T10:17:23.595Z,1.10
2023-03-31T10:19:58.734Z,2.10
2023-03-31T10:22:31.171Z,1.83
2023-03-31T10:25:14.514Z,1.83
2023-03-31T10:27:42.343Z,1.70
2023-03-31T10:30:12.017Z,1.42
2023-03-31T10:32:42.930Z,1.52
2023-03-31T10:35:27.589Z,1.42
2023-03-31T10:38:00.479Z,1.52
2023-03-31T10:40:29.813Z,2.10
2023-03-31T10:43:12.061Z,1.70
2023-03-31T10:45:47.488Z,1.60
2023-03-31T10:48:29.895Z,2.00
2023-03-31T10:51:13.520Z,2.13
2023-03-31T10:53:46.486Z,2.35
2023-03-31T10:56:42.302Z,0.90
2023-03-31T10:59:37.736Z,0.80
2023-03-31T11:02:13.840Z,1.00
2023-03-31T11:05:02.062Z,0.95
2023-03-31T11:07:53.508Z,0.90
2023-03-31T11:10:51.199Z,0.95
2023-03-31T11:13:33.980Z,1.10
2023-03-31T11:16:12.947Z,1.00
2023-03-31T11:18:56.548Z,1.00
2023-03-31T11:21:53.720Z,0.88
2023-03-31T11:24:55.608Z,0.80
2023-03-31T11:27:22.076Z,1.30
2023-03-31T11:30:22.150Z,1.13
2023-03-31T11:33:19.293Z,1.30
2023-03-31T11:35:56.812Z,0.80
2023-03-31T11:38:50.675Z,1.00
2023-03-31T11:41:27.428Z,1.13
2023-03-31T11:43:59.938Z,1.10
2023-03-31T11:46:41.385Z,1.10
2023-03-31T11:49:21.433Z,0.98
2023-03-31T11:52:02.000Z,0.98
2023-03-31T11:54:37.953Z,1.13
2023-03-31T11:57:19.767Z,1.20
2023-03-31T11:59:57.294Z,1.45
2023-03-31T12:02:33.964Z,1.42
2023-03-31T12:05:02.154Z,1.10
2023-03-31T12:07:38.692Z,1.23
2023-03-31T12:10:18.801Z,0.90
2023-03-31T12:12:50.740Z,1.40
2023-03-31T12:15:39.466Z,1.48
2023-03-31T12:18:22.892Z,1.30
2023-03-31T12:20:53.962Z,1.40
2023-03-31T12:23:28.506Z,1.30
2023-03-31T12:26:14.781Z,1.08
2023-03-31T12:28:43.600Z,1.33
2023-03-31T12:31:20.431Z,1.63
2023-03-31T12:34:02.616Z,1.70
2023-03-31T12:37:00.819Z,1.33
2023-03-31T12:39:53.362Z,1.48
2023-03-31T12:42:49.963Z,1.63
2023-03-31T12:45:19.348Z,1.40
2023-03-31T12:48:31.626Z,0.93
2023-03-31T12:51:01.027Z,1.52
2023-03-31T12:53:57.706Z,1.55
2023-03-31T12:56:25.920Z,1.40
2023-03-31T12:58:52.669Z,1.40
2023-03-31T13:01:19.348Z,1.30
2023-03-31T13:03:49.202Z,1.40
2023-03-31T13:06:27.887Z,1.35
2023-03-31T13:09:01.011Z,1.27
2023-03-31T13:11:34.000Z,1.10
2023-03-31T13:14:23.619Z,1.60
2023-03-31T13:16:55.572Z,1.10
2023-03-31T13:19:36.736Z,1.27
2023-03-31T13:22:06.123Z,0.93
2023-03-31T13:24:34.545Z,1.13
2023-03-31T13:27:30.552Z,1.20
2023-03-31T13:29:57.058Z,0.95
2023-03-31T13:32:25.634Z,1.05
2023-03-31T13:35:00.357Z,1.30
2023-03-31T13:37:48.542Z,1.00
2023-03-31T13:40:17.786Z,1.10
2023-03-31T13:43:17.525Z,0.90
2023-03-31T13:46:14.497Z,1.23
2023-03-31T13:49:05.681Z,1.00
2023-03-31T13:51:46.812Z,0.82
2023-03-31T13:54:47.186Z,1.35
2023-03-31T13:57:41.016Z,1.13
2023-03-31T14:00:53.296Z,1.10
2023-03-31T14:03:34.933Z,1.10
2023-03-31T14:06:27.345Z,1.45
2023-03-31T14:09:10.752Z,1.00
2023-03-31T14:11:37.337Z,1.00
2023-03-31T14:14:12.682Z,1.02
2023-03-31T14:16:42.177Z,0.63
2023-03-31T14:19:24.316Z,1.10
2023-03-31T14:22:13.913Z,1.10
2023-03-31T14:24:53.117Z,0.57
2023-03-31T14:27:47.268Z,0.95
2023-03-31T14:30:21.333Z,1.00
2023-03-31T14:33:04.161Z,1.02
2023-03-31T14:35:38.916Z,0.82
2023-03-31T14:38:20.340Z,1.00
2023-03-31T14:40:50.308Z,0.90
2023-03-31T14:43:22.672Z,0.82
2023-03-31T14:45:58.996Z,0.95
2023-03-31T14:48:28.542Z,1.20
2023-03-31T14:50:59.108Z,1.10
2023-03-31T14:53:26.965Z,0.93
2023-03-31T14:56:04.728Z,0.82
2023-03-31T14:58:35.013Z,0.93
2023-03-31T15:01:05.184Z,1.55
2023-03-31T15:03:34.034Z,1.20
2023-03-31T15:06:02.451Z,1.58
2023-03-31T15:08:30.978Z,1.02
2023-03-31T15:11:12.964Z,1.85
2023-03-31T15:13:56.698Z,1.17
2023-03-31T15:16:36.235Z,1.38
2023-03-31T15:19:11.249Z,1.10
2023-03-31T15:21:38.848Z,1.10
2023-03-31T15:24:05.882Z,1.40
2023-03-31T15:26:41.698Z,0.77
2023-03-31T15:29:17.136Z,0.95
2023-03-31T15:31:44.423Z,1.10
2023-03-31T15:34:19.652Z,0.88
2023-03-31T15:36:46.503Z,1.00
2023-03-31T15:39:14.641Z,0.88
2023-03-31T15:41:42.929Z,0.95
2023-03-31T15:44:38.317Z,0.73
2023-03-31T15:47:20.472Z,0.90
2023-03-31T15:49:50.663Z,1.02
2023-03-31T15:52:30.605Z,0.82
2023-03-31T15:54:57.462Z,0.68
2023-03-31T15:57:34.983Z,0.80
2023-03-31T16:00:04.307Z,0.50
2023-03-31T16:02:44.512Z,0.75
2023-03-31T16:08:38.196Z,0.73
2023-03-31T16:11:15.610Z,0.82
2023-03-31T16:13:48.206Z,0.82
2023-03-31T16:16:18.354Z,0.70
2023-03-31T16:18:51.169Z,0.47
2023-03-31T16:21:24.421Z,0.60
2023-03-31T16:23:59.373Z,0.60
2023-03-31T16:26:28.037Z,0.52
2023-03-31T16:28:57.559Z,0.60
2023-03-31T16:31:31.061Z,1.00
2023-03-31T16:33:58.046Z,0.77
2023-03-31T16:36:24.723Z,0.80
2023-03-31T16:38:55.025Z,0.60
2023-03-31T16:41:25.185Z,0.75
2023-03-31T16:43:52.575Z,0.77
2023-03-31T16:46:19.455Z,0.68
2023-03-31T16:48:46.247Z,0.88
2023-03-31T16:51:13.517Z,0.70
2023-03-31T16:53:40.413Z,0.82
2023-03-31T16:56:08.402Z,0.70
2023-03-31T16:58:36.570Z,0.60
2023-03-31T17:01:04.557Z,0.68
2023-03-31T17:03:31.566Z,0.68
2023-03-31T17:05:59.471Z,0.80
2023-03-31T17:08:27.704Z,0.70
2023-03-31T17:10:58.764Z,0.82
2023-03-31T17:13:25.542Z,0.65
2023-03-31T17:16:04.408Z,0.70
2023-03-31T17:21:08.887Z,0.90
2023-03-31T17:23:36.383Z,0.52
2023-03-31T17:26:04.255Z,0.45
2023-03-31T17:28:31.434Z,0.70
2023-03-31T17:30:58.667Z,0.80
2023-03-31T17:33:26.052Z,0.88
2023-03-31T17:35:57.224Z,0.80
2023-03-31T17:38:24.470Z,0.60
2023-03-31T17:40:51.025Z,0.98
2023-03-31T17:43:17.628Z,1.10
2023-03-31T17:45:44.146Z,0.75
2023-03-31T17:48:10.766Z,0.55
2023-03-31T17:50:38.333Z,0.68
2023-03-31T17:53:09.154Z,0.40
2023-03-31T17:55:38.696Z,0.93
2023-03-31T17:58:06.498Z,0.73
2023-03-31T18:00:33.505Z,0.50
2023-03-31T18:03:00.146Z,0.77
2023-03-31T18:05:27.025Z,0.90
2023-03-31T18:07:53.597Z,1.00
2023-03-31T18:10:20.429Z,0.75
2023-03-31T18:12:47.761Z,0.70
2023-03-31T18:15:14.300Z,0.90
2023-03-31T18:17:40.853Z,0.93
2023-03-31T18:20:07.877Z,0.50
2023-03-31T18:22:34.356Z,0.77
2023-03-31T18:25:00.917Z,0.65
2023-03-31T18:27:27.551Z,1.33
2023-03-31T18:29:54.045Z,0.80
2023-03-31T18:32:20.709Z,0.88
2023-03-31T18:34:47.335Z,0.95
2023-03-31T18:37:14.002Z,0.75
2023-03-31T18:39:40.545Z,0.90
2023-03-31T18:42:07.700Z,0.60
2023-03-31T18:44:36.048Z,0.57
2023-03-31T18:47:02.768Z,0.68
2023-03-31T18:49:29.546Z,0.70
2023-03-31T18:51:57.055Z,0.90
2023-03-31T18:54:23.602Z,0.63
2023-03-31T18:56:50.339Z,1.02
2023-03-31T18:59:17.008Z,0.55
2023-03-31T19:01:43.721Z,0.82
2023-03-31T19:04:11.940Z,0.80
2023-03-31T19:06:39.042Z,0.73
2023-03-31T19:09:06.095Z,0.68
2023-03-31T19:11:32.768Z,0.63
2023-03-31T19:13:59.398Z,0.98
2023-03-31T19:16:27.223Z,0.60
2023-03-31T19:18:54.442Z,0.73
2023-03-31T19:21:22.141Z,0.60
2023-03-31T19:23:48.679Z,0.43
2023-03-31T19:26:18.197Z,0.77
2023-03-31T19:28:45.312Z,0.68
2023-03-31T19:31:12.406Z,0.55
2023-03-31T19:33:39.003Z,0.77
2023-03-31T19:36:05.637Z,0.60
2023-03-31T19:38:34.872Z,0.55
2023-03-31T19:41:01.479Z,0.65
2023-03-31T19:43:30.177Z,0.70
2023-03-31T19:45:58.277Z,0.63
2023-03-31T19:48:26.584Z,0.88
2023-03-31T19:50:59.586Z,0.90
2023-03-31T19:53:27.000Z,0.73
2023-03-31T19:56:08.167Z,0.68
2023-03-31T19:58:36.355Z,0.70
2023-03-31T20:01:05.287Z,1.10
2023-03-31T20:03:33.203Z,0.52
2023-03-31T20:06:08.302Z,0.70
2023-03-31T20:08:36.632Z,0.70
2023-03-31T20:11:05.910Z,0.70
2023-03-31T20:13:35.815Z,0.90
2023-03-31T20:16:13.925Z,0.80
2023-03-31T20:18:43.571Z,0.82
2023-03-31T20:21:13.199Z,1.05
2023-03-31T20:23:41.831Z,0.52
2023-03-31T20:26:12.159Z,0.68
2023-03-31T20:28:39.255Z,0.60
2023-03-31T20:31:11.440Z,0.50
2023-03-31T20:33:38.738Z,1.00
2023-03-31T20:36:11.733Z,1.25
2023-03-31T20:38:40.069Z,0.65
2023-03-31T20:41:07.392Z,0.80
2023-03-31T20:43:35.751Z,0.68
2023-03-31T20:46:04.869Z,0.95
2023-03-31T20:48:34.824Z,0.80
2023-03-31T20:51:02.128Z,1.02
2023-03-31T20:53:28.714Z,1.00
2023-03-31T20:55:55.288Z,0.70
2023-03-31T20:58:22.207Z,0.85
2023-03-31T21:00:48.876Z,0.70
2023-03-31T21:03:15.875Z,0.70
2023-03-31T21:05:44.717Z,1.00
2023-03-31T21:08:12.168Z,1.08
2023-03-31T21:10:43.566Z,0.93
2023-03-31T21:13:16.432Z,0.45
2023-03-31T21:15:47.508Z,0.98
2023-03-31T21:18:16.777Z,0.68
2023-03-31T21:20:55.935Z,0.60
2023-03-31T21:23:24.894Z,0.85
2023-03-31T21:25:55.583Z,0.85
2023-03-31T21:28:25.421Z,0.80
2023-03-31T21:31:03.220Z,1.02
2023-03-31T21:33:30.784Z,0.80
2023-03-31T21:35:58.670Z,0.95
2023-03-31T21:38:26.388Z,0.80
2023-03-31T21:40:55.542Z,0.55
2023-03-31T21:45:57.167Z,0.75
2023-03-31T21:48:26.288Z,0.98
2023-03-31T21:50:54.824Z,0.93
2023-03-31T21:53:23.122Z,0.73
2023-03-31T21:55:55.448Z,0.73
2023-03-31T21:58:23.647Z,0.80
2023-03-31T22:00:50.237Z,0.50
2023-03-31T22:03:27.252Z,0.43
2023-03-31T22:06:07.185Z,0.50
2023-03-31T22:08:36.843Z,0.75
2023-03-31T22:11:05.981Z,0.77
2023-03-31T22:16:01.886Z,0.60
2023-03-31T22:20:56.851Z,0.80
2023-03-31T22:23:24.026Z,0.90
2023-03-31T22:25:50.818Z,0.77
2023-03-31T22:28:17.399Z,0.38
2023-03-31T22:30:44.341Z,0.80
2023-03-31T22:33:11.447Z,0.88
2023-03-31T22:35:38.090Z,0.80
2023-03-31T22:38:06.169Z,0.43
2023-03-31T22:40:34.660Z,0.80
2023-03-31T22:43:01.633Z,0.68
2023-03-31T22:45:28.507Z,0.52
2023-03-31T22:47:55.475Z,0.60
2023-03-31T22:50:22.725Z,0.77
2023-03-31T22:52:49.377Z,0.50
2023-03-31T22:55:16.160Z,0.80
2023-03-31T22:57:42.840Z,0.60
2023-03-31T23:00:10.557Z,0.77
2023-03-31T23:02:37.166Z,0.45
2023-03-31T23:05:03.957Z,0.82
2023-03-31T23:07:30.524Z,0.70
2023-03-31T23:09:57.032Z,0.98
2023-03-31T23:12:27.487Z,0.32
2023-03-31T23:14:54.453Z,0.80
2023-03-31T23:17:21.088Z,0.60
2023-03-31T23:19:48.104Z,0.77
2023-03-31T23:22:14.675Z,0.50
2023-03-31T23:24:42.778Z,0.73
2023-03-31T23:27:09.508Z,0.80
2023-03-31T23:29:36.618Z,0.80
2023-03-31T23:32:03.789Z,0.60
2023-03-31T23:34:30.611Z,0.85
2023-03-31T23:36:57.296Z,0.70
2023-03-31T23:39:23.948Z,0.90
2023-03-31T23:41:51.175Z,0.80
2023-03-31T23:44:18.108Z,0.60
2023-03-31T23:46:44.853Z,0.70
2023-03-31T23:49:12.622Z,0.70
2023-03-31T23:51:39.168Z,0.60
2023-03-31T23:54:06.084Z,0.50
2023-03-31T23:56:32.608Z,0.57
2023-03-31T23:58:59.204Z,0.45
